sensor_id;sensor_type;location;lat;lon;timestamp;P1;durP1;ratioP1;P2;durP2;ratioP2
69789;SDS011;57064;52.046;4.800;2022-08-01T00:01:39;17.58;;;7.78;;
69789;SDS011;57064;52.046;4.800;2022-08-01T00:04:05;17.25;;;7.72;;
69789;SDS011;57064;52.046;4.800;2022-08-01T00:06:31;15.52;;;7.40;;
69789;SDS011;57064;52.046;4.800;2022-08-01T00:08:57;18.52;;;7.65;;
69789;SDS011;57064;52.046;4.800;2022-08-01T00:11:23;23.67;;;8.10;;
69789;SDS011;57064;52.046;4.800;2022-08-01T00:13:49;18.38;;;8.75;;
69789;SDS011;57064;52.046;4.800;2022-08-01T00:16:16;21.08;;;7.68;;
69789;SDS011;57064;52.046;4.800;2022-08-01T00:18:42;19.92;;;7.97;;
69789;SDS011;57064;52.046;4.800;2022-08-01T00:21:08;18.77;;;8.48;;
69789;SDS011;57064;52.046;4.800;2022-08-01T00:23:34;22.30;;;9.20;;
69789;SDS011;57064;52.046;4.800;2022-08-01T00:26:00;20.25;;;8.52;;
69789;SDS011;57064;52.046;4.800;2022-08-01T00:28:27;20.33;;;8.25;;
69789;SDS011;57064;52.046;4.800;2022-08-01T00:30:53;16.25;;;7.75;;
69789;SDS011;57064;52.046;4.800;2022-08-01T00:33:19;16.77;;;7.93;;
69789;SDS011;57064;52.046;4.800;2022-08-01T00:35:45;23.00;;;8.07;;
69789;SDS011;57064;52.046;4.800;2022-08-01T00:38:11;17.30;;;8.38;;
69789;SDS011;57064;52.046;4.800;2022-08-01T00:40:37;18.40;;;7.78;;
69789;SDS011;57064;52.046;4.800;2022-08-01T00:43:03;18.50;;;7.85;;
69789;SDS011;57064;52.046;4.800;2022-08-01T00:45:29;17.70;;;8.40;;
69789;SDS011;57064;52.046;4.800;2022-08-01T00:47:55;15.02;;;7.30;;
69789;SDS011;57064;52.046;4.800;2022-08-01T00:50:21;23.67;;;9.82;;
69789;SDS011;57064;52.046;4.800;2022-08-01T00:52:47;21.08;;;8.35;;
69789;SDS011;57064;52.046;4.800;2022-08-01T00:55:15;19.02;;;7.43;;
69789;SDS011;57064;52.046;4.800;2022-08-01T00:57:43;17.95;;;8.15;;
69789;SDS011;57064;52.046;4.800;2022-08-01T01:00:09;22.13;;;8.68;;
69789;SDS011;57064;52.046;4.800;2022-08-01T01:02:36;22.75;;;9.27;;
69789;SDS011;57064;52.046;4.800;2022-08-01T01:05:02;22.33;;;9.05;;
69789;SDS011;57064;52.046;4.800;2022-08-01T01:07:31;20.27;;;7.80;;
69789;SDS011;57064;52.046;4.800;2022-08-01T01:10:22;22.60;;;9.70;;
69789;SDS011;57064;52.046;4.800;2022-08-01T01:13:09;22.83;;;9.00;;
69789;SDS011;57064;52.046;4.800;2022-08-01T01:15:44;21.60;;;8.20;;
69789;SDS011;57064;52.046;4.800;2022-08-01T01:26:45;18.23;;;8.60;;
69789;SDS011;57064;52.046;4.800;2022-08-01T01:32:06;24.05;;;9.80;;
69789;SDS011;57064;52.046;4.800;2022-08-01T01:34:36;23.00;;;7.68;;
69789;SDS011;57064;52.046;4.800;2022-08-01T01:37:05;19.58;;;8.27;;
69789;SDS011;57064;52.046;4.800;2022-08-01T01:39:33;20.90;;;7.85;;
69789;SDS011;57064;52.046;4.800;2022-08-01T01:42:02;23.10;;;8.00;;
69789;SDS011;57064;52.046;4.800;2022-08-01T01:44:30;22.90;;;7.95;;
69789;SDS011;57064;52.046;4.800;2022-08-01T01:46:57;19.27;;;7.22;;
69789;SDS011;57064;52.046;4.800;2022-08-01T01:49:25;11.50;;;5.13;;
69789;SDS011;57064;52.046;4.800;2022-08-01T01:51:53;19.95;;;6.75;;
69789;SDS011;57064;52.046;4.800;2022-08-01T01:54:22;26.52;;;8.30;;
69789;SDS011;57064;52.046;4.800;2022-08-01T01:56:50;19.95;;;8.13;;
69789;SDS011;57064;52.046;4.800;2022-08-01T01:59:21;19.75;;;9.13;;
69789;SDS011;57064;52.046;4.800;2022-08-01T02:01:51;23.75;;;8.27;;
69789;SDS011;57064;52.046;4.800;2022-08-01T02:04:20;22.55;;;8.43;;
69789;SDS011;57064;52.046;4.800;2022-08-01T02:06:47;27.60;;;9.57;;
69789;SDS011;57064;52.046;4.800;2022-08-01T02:09:17;18.38;;;8.23;;
69789;SDS011;57064;52.046;4.800;2022-08-01T02:11:44;23.92;;;8.73;;
69789;SDS011;57064;52.046;4.800;2022-08-01T02:14:13;19.88;;;8.90;;
69789;SDS011;57064;52.046;4.800;2022-08-01T02:16:41;24.45;;;8.55;;
69789;SDS011;57064;52.046;4.800;2022-08-01T02:19:09;23.48;;;8.55;;
69789;SDS011;57064;52.046;4.800;2022-08-01T02:21:40;19.35;;;8.30;;
69789;SDS011;57064;52.046;4.800;2022-08-01T02:27:28;18.95;;;7.72;;
69789;SDS011;57064;52.046;4.800;2022-08-01T02:30:00;23.83;;;8.55;;
69789;SDS011;57064;52.046;4.800;2022-08-01T02:32:36;18.13;;;7.57;;
69789;SDS011;57064;52.046;4.800;2022-08-01T02:35:13;18.40;;;8.18;;
69789;SDS011;57064;52.046;4.800;2022-08-01T02:37:51;15.63;;;7.07;;
69789;SDS011;57064;52.046;4.800;2022-08-01T02:40:18;14.98;;;7.13;;
69789;SDS011;57064;52.046;4.800;2022-08-01T02:42:45;16.92;;;7.38;;
69789;SDS011;57064;52.046;4.800;2022-08-01T02:45:14;15.52;;;6.78;;
69789;SDS011;57064;52.046;4.800;2022-08-01T02:47:44;15.50;;;6.75;;
69789;SDS011;57064;52.046;4.800;2022-08-01T02:50:12;17.30;;;7.47;;
69789;SDS011;57064;52.046;4.800;2022-08-01T02:52:41;16.17;;;7.10;;
69789;SDS011;57064;52.046;4.800;2022-08-01T02:55:10;12.57;;;6.78;;
69789;SDS011;57064;52.046;4.800;2022-08-01T02:57:37;15.48;;;7.30;;
69789;SDS011;57064;52.046;4.800;2022-08-01T03:00:05;16.02;;;6.75;;
69789;SDS011;57064;52.046;4.800;2022-08-01T03:02:32;14.45;;;6.25;;
69789;SDS011;57064;52.046;4.800;2022-08-01T03:05:00;13.07;;;6.13;;
69789;SDS011;57064;52.046;4.800;2022-08-01T03:07:27;16.15;;;6.93;;
69789;SDS011;57064;52.046;4.800;2022-08-01T03:09:55;13.50;;;6.05;;
69789;SDS011;57064;52.046;4.800;2022-08-01T03:12:24;14.80;;;6.38;;
69789;SDS011;57064;52.046;4.800;2022-08-01T03:14:54;14.95;;;6.28;;
69789;SDS011;57064;52.046;4.800;2022-08-01T03:17:24;11.40;;;5.75;;
69789;SDS011;57064;52.046;4.800;2022-08-01T03:19:52;15.45;;;6.28;;
69789;SDS011;57064;52.046;4.800;2022-08-01T03:22:19;13.73;;;5.90;;
69789;SDS011;57064;52.046;4.800;2022-08-01T03:24:49;16.63;;;7.72;;
69789;SDS011;57064;52.046;4.800;2022-08-01T03:27:18;15.15;;;6.72;;
69789;SDS011;57064;52.046;4.800;2022-08-01T03:29:45;13.18;;;6.20;;
69789;SDS011;57064;52.046;4.800;2022-08-01T03:32:12;16.17;;;7.13;;
69789;SDS011;57064;52.046;4.800;2022-08-01T03:34:40;12.50;;;5.35;;
69789;SDS011;57064;52.046;4.800;2022-08-01T03:37:14;15.88;;;5.80;;
69789;SDS011;57064;52.046;4.800;2022-08-01T03:39:47;12.63;;;5.95;;
69789;SDS011;57064;52.046;4.800;2022-08-01T03:42:17;13.07;;;5.72;;
69789;SDS011;57064;52.046;4.800;2022-08-01T03:47:36;14.30;;;5.78;;
69789;SDS011;57064;52.046;4.800;2022-08-01T03:50:03;14.40;;;6.50;;
69789;SDS011;57064;52.046;4.800;2022-08-01T03:52:31;12.00;;;5.93;;
69789;SDS011;57064;52.046;4.800;2022-08-01T03:55:01;12.32;;;5.95;;
69789;SDS011;57064;52.046;4.800;2022-08-01T03:57:32;14.93;;;5.80;;
69789;SDS011;57064;52.046;4.800;2022-08-01T03:59:59;17.60;;;6.40;;
69789;SDS011;57064;52.046;4.800;2022-08-01T04:02:28;12.93;;;6.10;;
69789;SDS011;57064;52.046;4.800;2022-08-01T04:04:54;16.45;;;5.63;;
69789;SDS011;57064;52.046;4.800;2022-08-01T04:07:25;14.60;;;6.55;;
69789;SDS011;57064;52.046;4.800;2022-08-01T04:09:53;13.35;;;6.18;;
69789;SDS011;57064;52.046;4.800;2022-08-01T04:12:19;11.57;;;5.72;;
69789;SDS011;57064;52.046;4.800;2022-08-01T04:14:46;17.55;;;6.80;;
69789;SDS011;57064;52.046;4.800;2022-08-01T04:17:12;16.38;;;6.75;;
69789;SDS011;57064;52.046;4.800;2022-08-01T04:19:39;12.25;;;6.88;;
69789;SDS011;57064;52.046;4.800;2022-08-01T04:22:06;16.55;;;7.18;;
69789;SDS011;57064;52.046;4.800;2022-08-01T04:24:38;16.50;;;6.60;;
69789;SDS011;57064;52.046;4.800;2022-08-01T04:27:07;15.30;;;7.40;;
69789;SDS011;57064;52.046;4.800;2022-08-01T04:29:35;16.27;;;6.80;;
69789;SDS011;57064;52.046;4.800;2022-08-01T04:32:02;16.08;;;6.53;;
69789;SDS011;57064;52.046;4.800;2022-08-01T04:34:31;13.82;;;6.93;;
69789;SDS011;57064;52.046;4.800;2022-08-01T04:36:58;11.52;;;6.30;;
69789;SDS011;57064;52.046;4.800;2022-08-01T04:39:26;15.93;;;5.78;;
69789;SDS011;57064;52.046;4.800;2022-08-01T04:41:55;12.52;;;6.32;;
69789;SDS011;57064;52.046;4.800;2022-08-01T04:44:25;12.70;;;5.82;;
69789;SDS011;57064;52.046;4.800;2022-08-01T04:46:52;16.20;;;5.55;;
69789;SDS011;57064;52.046;4.800;2022-08-01T04:49:19;11.35;;;5.78;;
69789;SDS011;57064;52.046;4.800;2022-08-01T04:51:50;10.45;;;5.32;;
69789;SDS011;57064;52.046;4.800;2022-08-01T04:54:17;10.45;;;5.03;;
69789;SDS011;57064;52.046;4.800;2022-08-01T04:56:43;11.63;;;5.05;;
69789;SDS011;57064;52.046;4.800;2022-08-01T04:59:09;11.27;;;5.70;;
69789;SDS011;57064;52.046;4.800;2022-08-01T05:01:54;12.15;;;5.20;;
69789;SDS011;57064;52.046;4.800;2022-08-01T05:04:20;8.90;;;4.55;;
69789;SDS011;57064;52.046;4.800;2022-08-01T05:06:46;10.50;;;5.03;;
69789;SDS011;57064;52.046;4.800;2022-08-01T05:09:12;13.57;;;4.97;;
69789;SDS011;57064;52.046;4.800;2022-08-01T05:11:38;11.32;;;5.03;;
69789;SDS011;57064;52.046;4.800;2022-08-01T05:14:04;10.85;;;4.93;;
69789;SDS011;57064;52.046;4.800;2022-08-01T05:16:31;10.40;;;4.97;;
69789;SDS011;57064;52.046;4.800;2022-08-01T05:18:57;10.27;;;4.53;;
69789;SDS011;57064;52.046;4.800;2022-08-01T05:21:23;9.18;;;4.75;;
69789;SDS011;57064;52.046;4.800;2022-08-01T05:23:49;9.77;;;5.15;;
69789;SDS011;57064;52.046;4.800;2022-08-01T05:26:15;10.27;;;4.63;;
69789;SDS011;57064;52.046;4.800;2022-08-01T05:28:41;8.45;;;4.75;;
69789;SDS011;57064;52.046;4.800;2022-08-01T05:31:07;8.75;;;4.50;;
69789;SDS011;57064;52.046;4.800;2022-08-01T05:33:34;9.43;;;4.95;;
69789;SDS011;57064;52.046;4.800;2022-08-01T05:36:00;12.18;;;5.00;;
69789;SDS011;57064;52.046;4.800;2022-08-01T05:38:26;9.77;;;5.05;;
69789;SDS011;57064;52.046;4.800;2022-08-01T05:40:52;15.02;;;5.53;;
69789;SDS011;57064;52.046;4.800;2022-08-01T05:43:18;10.18;;;5.50;;
69789;SDS011;57064;52.046;4.800;2022-08-01T05:45:44;10.15;;;5.38;;
69789;SDS011;57064;52.046;4.800;2022-08-01T05:48:10;10.68;;;5.57;;
69789;SDS011;57064;52.046;4.800;2022-08-01T05:50:37;7.95;;;5.13;;
69789;SDS011;57064;52.046;4.800;2022-08-01T05:53:03;9.18;;;5.15;;
69789;SDS011;57064;52.046;4.800;2022-08-01T05:55:29;8.65;;;5.00;;
69789;SDS011;57064;52.046;4.800;2022-08-01T05:57:55;9.68;;;6.15;;
69789;SDS011;57064;52.046;4.800;2022-08-01T06:00:21;7.80;;;5.00;;
69789;SDS011;57064;52.046;4.800;2022-08-01T06:02:47;8.23;;;4.85;;
69789;SDS011;57064;52.046;4.800;2022-08-01T06:05:13;8.18;;;4.93;;
69789;SDS011;57064;52.046;4.800;2022-08-01T06:07:39;14.10;;;5.55;;
69789;SDS011;57064;52.046;4.800;2022-08-01T06:10:05;8.70;;;5.13;;
69789;SDS011;57064;52.046;4.800;2022-08-01T06:12:33;10.38;;;6.20;;
69789;SDS011;57064;52.046;4.800;2022-08-01T06:14:59;8.48;;;5.30;;
69789;SDS011;57064;52.046;4.800;2022-08-01T06:17:25;10.88;;;5.68;;
69789;SDS011;57064;52.046;4.800;2022-08-01T06:19:51;10.77;;;5.65;;
69789;SDS011;57064;52.046;4.800;2022-08-01T06:22:17;14.40;;;6.13;;
69789;SDS011;57064;52.046;4.800;2022-08-01T06:24:43;9.63;;;6.18;;
69789;SDS011;57064;52.046;4.800;2022-08-01T06:27:10;12.45;;;6.63;;
69789;SDS011;57064;52.046;4.800;2022-08-01T06:29:36;16.63;;;6.88;;
69789;SDS011;57064;52.046;4.800;2022-08-01T06:32:02;11.93;;;6.47;;
69789;SDS011;57064;52.046;4.800;2022-08-01T06:34:28;14.80;;;6.95;;
69789;SDS011;57064;52.046;4.800;2022-08-01T06:36:54;15.40;;;7.35;;
69789;SDS011;57064;52.046;4.800;2022-08-01T06:39:20;11.88;;;5.30;;
69789;SDS011;57064;52.046;4.800;2022-08-01T06:41:46;19.38;;;5.68;;
69789;SDS011;57064;52.046;4.800;2022-08-01T06:44:12;13.10;;;6.82;;
69789;SDS011;57064;52.046;4.800;2022-08-01T06:46:38;18.25;;;7.18;;
69789;SDS011;57064;52.046;4.800;2022-08-01T06:49:04;16.58;;;6.80;;
69789;SDS011;57064;52.046;4.800;2022-08-01T06:51:30;14.35;;;6.32;;
69789;SDS011;57064;52.046;4.800;2022-08-01T06:53:56;13.35;;;5.63;;
69789;SDS011;57064;52.046;4.800;2022-08-01T06:56:22;18.55;;;6.78;;
69789;SDS011;57064;52.046;4.800;2022-08-01T06:58:49;17.13;;;7.30;;
69789;SDS011;57064;52.046;4.800;2022-08-01T07:01:15;22.67;;;7.47;;
69789;SDS011;57064;52.046;4.800;2022-08-01T07:03:42;20.13;;;7.55;;
69789;SDS011;57064;52.046;4.800;2022-08-01T07:06:08;21.80;;;7.88;;
69789;SDS011;57064;52.046;4.800;2022-08-01T07:08:34;26.73;;;8.05;;
69789;SDS011;57064;52.046;4.800;2022-08-01T07:11:00;20.55;;;8.15;;
69789;SDS011;57064;52.046;4.800;2022-08-01T07:13:28;20.05;;;6.90;;
69789;SDS011;57064;52.046;4.800;2022-08-01T07:15:56;18.02;;;8.23;;
69789;SDS011;57064;52.046;4.800;2022-08-01T07:18:22;16.80;;;7.15;;
69789;SDS011;57064;52.046;4.800;2022-08-01T07:20:48;15.30;;;6.88;;
69789;SDS011;57064;52.046;4.800;2022-08-01T07:23:15;18.40;;;6.75;;
69789;SDS011;57064;52.046;4.800;2022-08-01T07:25:41;13.52;;;5.30;;
69789;SDS011;57064;52.046;4.800;2022-08-01T07:28:07;12.00;;;4.90;;
69789;SDS011;57064;52.046;4.800;2022-08-01T07:30:34;13.15;;;4.57;;
69789;SDS011;57064;52.046;4.800;2022-08-01T07:33:00;15.95;;;4.40;;
69789;SDS011;57064;52.046;4.800;2022-08-01T07:35:27;15.45;;;4.25;;
69789;SDS011;57064;52.046;4.800;2022-08-01T07:37:53;9.25;;;3.40;;
69789;SDS011;57064;52.046;4.800;2022-08-01T07:40:19;8.15;;;2.90;;
69789;SDS011;57064;52.046;4.800;2022-08-01T07:42:46;11.32;;;3.17;;
69789;SDS011;57064;52.046;4.800;2022-08-01T07:45:13;10.07;;;2.60;;
69789;SDS011;57064;52.046;4.800;2022-08-01T07:47:40;9.73;;;2.70;;
69789;SDS011;57064;52.046;4.800;2022-08-01T07:50:06;7.85;;;2.63;;
69789;SDS011;57064;52.046;4.800;2022-08-01T07:52:33;7.90;;;2.50;;
69789;SDS011;57064;52.046;4.800;2022-08-01T07:54:59;11.40;;;2.78;;
69789;SDS011;57064;52.046;4.800;2022-08-01T07:57:25;13.55;;;2.95;;
69789;SDS011;57064;52.046;4.800;2022-08-01T07:59:51;12.90;;;2.53;;
69789;SDS011;57064;52.046;4.800;2022-08-01T08:02:17;12.10;;;2.63;;
69789;SDS011;57064;52.046;4.800;2022-08-01T08:04:43;9.77;;;2.25;;
69789;SDS011;57064;52.046;4.800;2022-08-01T08:07:09;8.20;;;2.00;;
69789;SDS011;57064;52.046;4.800;2022-08-01T08:09:35;7.57;;;2.00;;
69789;SDS011;57064;52.046;4.800;2022-08-01T08:12:01;13.50;;;1.90;;
69789;SDS011;57064;52.046;4.800;2022-08-01T08:14:27;10.20;;;2.25;;
69789;SDS011;57064;52.046;4.800;2022-08-01T08:16:54;9.93;;;2.28;;
69789;SDS011;57064;52.046;4.800;2022-08-01T08:19:20;6.47;;;1.98;;
69789;SDS011;57064;52.046;4.800;2022-08-01T08:21:46;8.98;;;2.22;;
69789;SDS011;57064;52.046;4.800;2022-08-01T08:24:12;10.80;;;2.20;;
69789;SDS011;57064;52.046;4.800;2022-08-01T08:26:44;6.45;;;1.80;;
69789;SDS011;57064;52.046;4.800;2022-08-01T08:29:11;11.15;;;2.03;;
69789;SDS011;57064;52.046;4.800;2022-08-01T08:31:37;11.55;;;1.83;;
69789;SDS011;57064;52.046;4.800;2022-08-01T08:34:03;9.73;;;1.88;;
69789;SDS011;57064;52.046;4.800;2022-08-01T08:36:29;7.20;;;1.70;;
69789;SDS011;57064;52.046;4.800;2022-08-01T08:38:55;7.20;;;1.90;;
69789;SDS011;57064;52.046;4.800;2022-08-01T08:41:22;6.95;;;1.75;;
69789;SDS011;57064;52.046;4.800;2022-08-01T08:43:48;15.27;;;2.80;;
69789;SDS011;57064;52.046;4.800;2022-08-01T08:46:14;7.82;;;1.75;;
69789;SDS011;57064;52.046;4.800;2022-08-01T08:48:42;6.05;;;2.20;;
69789;SDS011;57064;52.046;4.800;2022-08-01T08:51:08;7.95;;;2.00;;
69789;SDS011;57064;52.046;4.800;2022-08-01T08:53:36;6.70;;;1.60;;
69789;SDS011;57064;52.046;4.800;2022-08-01T08:58:36;10.45;;;1.83;;
69789;SDS011;57064;52.046;4.800;2022-08-01T09:01:07;5.15;;;1.80;;
69789;SDS011;57064;52.046;4.800;2022-08-01T09:03:33;8.43;;;1.60;;
69789;SDS011;57064;52.046;4.800;2022-08-01T09:06:00;8.73;;;1.52;;
69789;SDS011;57064;52.046;4.800;2022-08-01T09:08:26;8.27;;;1.30;;
69789;SDS011;57064;52.046;4.800;2022-08-01T09:10:52;7.32;;;1.50;;
69789;SDS011;57064;52.046;4.800;2022-08-01T09:13:18;6.82;;;1.60;;
69789;SDS011;57064;52.046;4.800;2022-08-01T09:15:51;6.78;;;2.05;;
69789;SDS011;57064;52.046;4.800;2022-08-01T09:21:03;5.82;;;1.38;;
69789;SDS011;57064;52.046;4.800;2022-08-01T09:23:33;7.68;;;1.73;;
69789;SDS011;57064;52.046;4.800;2022-08-01T09:26:00;9.80;;;2.42;;
69789;SDS011;57064;52.046;4.800;2022-08-01T09:28:27;7.53;;;1.80;;
69789;SDS011;57064;52.046;4.800;2022-08-01T09:30:55;5.97;;;1.33;;
69789;SDS011;57064;52.046;4.800;2022-08-01T09:33:22;6.13;;;1.52;;
69789;SDS011;57064;52.046;4.800;2022-08-01T09:35:55;7.22;;;1.80;;
69789;SDS011;57064;52.046;4.800;2022-08-01T09:38:23;9.82;;;1.77;;
69789;SDS011;57064;52.046;4.800;2022-08-01T09:40:55;10.35;;;1.70;;
69789;SDS011;57064;52.046;4.800;2022-08-01T09:43:24;13.45;;;2.08;;
69789;SDS011;57064;52.046;4.800;2022-08-01T09:45:52;6.60;;;1.55;;
69789;SDS011;57064;52.046;4.800;2022-08-01T09:48:19;10.90;;;1.90;;
69789;SDS011;57064;52.046;4.800;2022-08-01T09:50:47;7.93;;;2.00;;
69789;SDS011;57064;52.046;4.800;2022-08-01T09:53:17;6.22;;;1.90;;
69789;SDS011;57064;52.046;4.800;2022-08-01T09:55:44;6.40;;;1.58;;
69789;SDS011;57064;52.046;4.800;2022-08-01T09:58:11;4.85;;;1.52;;
69789;SDS011;57064;52.046;4.800;2022-08-01T10:00:37;7.25;;;1.65;;
69789;SDS011;57064;52.046;4.800;2022-08-01T10:03:24;8.35;;;1.75;;
69789;SDS011;57064;52.046;4.800;2022-08-01T10:05:52;10.38;;;1.70;;
69789;SDS011;57064;52.046;4.800;2022-08-01T10:08:18;6.43;;;1.70;;
69789;SDS011;57064;52.046;4.800;2022-08-01T10:13:33;10.45;;;1.60;;
69789;SDS011;57064;52.046;4.800;2022-08-01T10:16:00;6.75;;;1.50;;
69789;SDS011;57064;52.046;4.800;2022-08-01T10:18:26;7.45;;;1.48;;
69789;SDS011;57064;52.046;4.800;2022-08-01T10:20:56;8.07;;;2.00;;
69789;SDS011;57064;52.046;4.800;2022-08-01T10:23:25;3.53;;;1.40;;
69789;SDS011;57064;52.046;4.800;2022-08-01T10:25:55;6.85;;;1.75;;
69789;SDS011;57064;52.046;4.800;2022-08-01T10:28:22;9.23;;;1.95;;
69789;SDS011;57064;52.046;4.800;2022-08-01T10:30:49;12.02;;;1.90;;
69789;SDS011;57064;52.046;4.800;2022-08-01T10:33:16;7.15;;;1.92;;
69789;SDS011;57064;52.046;4.800;2022-08-01T10:35:45;6.68;;;1.73;;
69789;SDS011;57064;52.046;4.800;2022-08-01T10:38:12;8.10;;;1.77;;
69789;SDS011;57064;52.046;4.800;2022-08-01T10:40:39;9.00;;;1.77;;
69789;SDS011;57064;52.046;4.800;2022-08-01T10:43:09;10.73;;;2.55;;
69789;SDS011;57064;52.046;4.800;2022-08-01T10:45:36;5.45;;;1.83;;
69789;SDS011;57064;52.046;4.800;2022-08-01T10:48:06;5.07;;;1.63;;
69789;SDS011;57064;52.046;4.800;2022-08-01T10:50:49;7.05;;;2.15;;
69789;SDS011;57064;52.046;4.800;2022-08-01T10:53:24;6.40;;;1.63;;
69789;SDS011;57064;52.046;4.800;2022-08-01T10:58:24;8.20;;;1.48;;
69789;SDS011;57064;52.046;4.800;2022-08-01T11:03:42;7.88;;;1.90;;
69789;SDS011;57064;52.046;4.800;2022-08-01T11:06:16;9.05;;;2.08;;
69789;SDS011;57064;52.046;4.800;2022-08-01T11:08:50;7.40;;;2.15;;
69789;SDS011;57064;52.046;4.800;2022-08-01T11:11:17;5.60;;;1.80;;
69789;SDS011;57064;52.046;4.800;2022-08-01T11:16:32;5.70;;;1.48;;
69789;SDS011;57064;52.046;4.800;2022-08-01T11:19:00;4.90;;;1.65;;
69789;SDS011;57064;52.046;4.800;2022-08-01T11:32:50;8.38;;;2.05;;
69789;SDS011;57064;52.046;4.800;2022-08-01T11:35:16;4.82;;;1.63;;
69789;SDS011;57064;52.046;4.800;2022-08-01T11:37:46;2.60;;;1.50;;
69789;SDS011;57064;52.046;4.800;2022-08-01T11:40:25;6.38;;;1.65;;
69789;SDS011;57064;52.046;4.800;2022-08-01T11:45:55;10.25;;;1.90;;
69789;SDS011;57064;52.046;4.800;2022-08-01T11:48:22;3.20;;;1.20;;
69789;SDS011;57064;52.046;4.800;2022-08-01T11:50:52;7.47;;;1.75;;
69789;SDS011;57064;52.046;4.800;2022-08-01T11:53:20;4.90;;;1.70;;
69789;SDS011;57064;52.046;4.800;2022-08-01T11:55:47;4.28;;;1.65;;
69789;SDS011;57064;52.046;4.800;2022-08-01T11:58:24;4.22;;;1.80;;
69789;SDS011;57064;52.046;4.800;2022-08-01T12:00:54;6.88;;;1.92;;
69789;SDS011;57064;52.046;4.800;2022-08-01T12:03:30;7.45;;;1.92;;
69789;SDS011;57064;52.046;4.800;2022-08-01T12:05:57;8.15;;;1.73;;
69789;SDS011;57064;52.046;4.800;2022-08-01T12:08:27;6.20;;;1.52;;
69789;SDS011;57064;52.046;4.800;2022-08-01T12:10:54;7.03;;;1.40;;
69789;SDS011;57064;52.046;4.800;2022-08-01T12:13:21;4.75;;;1.60;;
69789;SDS011;57064;52.046;4.800;2022-08-01T12:15:47;10.77;;;1.73;;
69789;SDS011;57064;52.046;4.800;2022-08-01T12:18:15;5.72;;;1.40;;
69789;SDS011;57064;52.046;4.800;2022-08-01T12:20:42;6.07;;;1.30;;
69789;SDS011;57064;52.046;4.800;2022-08-01T12:23:10;5.32;;;1.73;;
69789;SDS011;57064;52.046;4.800;2022-08-01T12:25:38;6.45;;;1.85;;
69789;SDS011;57064;52.046;4.800;2022-08-01T12:28:06;4.05;;;1.40;;
69789;SDS011;57064;52.046;4.800;2022-08-01T12:30:34;5.38;;;1.30;;
69789;SDS011;57064;52.046;4.800;2022-08-01T12:33:02;6.38;;;1.77;;
69789;SDS011;57064;52.046;4.800;2022-08-01T12:35:30;5.13;;;1.45;;
69789;SDS011;57064;52.046;4.800;2022-08-01T12:38:06;4.85;;;1.17;;
69789;SDS011;57064;52.046;4.800;2022-08-01T12:40:40;3.90;;;1.10;;
69789;SDS011;57064;52.046;4.800;2022-08-01T12:43:09;5.80;;;1.48;;
69789;SDS011;57064;52.046;4.800;2022-08-01T12:45:40;4.43;;;1.40;;
69789;SDS011;57064;52.046;4.800;2022-08-01T12:48:09;6.95;;;1.30;;
69789;SDS011;57064;52.046;4.800;2022-08-01T12:50:38;5.05;;;1.60;;
69789;SDS011;57064;52.046;4.800;2022-08-01T12:53:05;9.77;;;1.60;;
69789;SDS011;57064;52.046;4.800;2022-08-01T12:55:32;6.50;;;1.73;;
69789;SDS011;57064;52.046;4.800;2022-08-01T12:58:09;3.40;;;1.15;;
69789;SDS011;57064;52.046;4.800;2022-08-01T13:00:38;7.88;;;1.52;;
69789;SDS011;57064;52.046;4.800;2022-08-01T13:03:11;3.30;;;1.10;;
69789;SDS011;57064;52.046;4.800;2022-08-01T13:05:42;4.10;;;1.35;;
69789;SDS011;57064;52.046;4.800;2022-08-01T13:08:16;7.65;;;1.48;;
69789;SDS011;57064;52.046;4.800;2022-08-01T13:10:44;7.60;;;1.70;;
69789;SDS011;57064;52.046;4.800;2022-08-01T13:13:10;8.93;;;1.85;;
69789;SDS011;57064;52.046;4.800;2022-08-01T13:15:38;5.93;;;1.90;;
69789;SDS011;57064;52.046;4.800;2022-08-01T13:21:06;10.15;;;2.22;;
69789;SDS011;57064;52.046;4.800;2022-08-01T13:23:37;6.50;;;1.92;;
69789;SDS011;57064;52.046;4.800;2022-08-01T13:26:04;7.55;;;1.92;;
69789;SDS011;57064;52.046;4.800;2022-08-01T13:28:30;3.20;;;1.75;;
69789;SDS011;57064;52.046;4.800;2022-08-01T13:33:24;5.57;;;1.63;;
69789;SDS011;57064;52.046;4.800;2022-08-01T13:35:52;4.60;;;1.50;;
69789;SDS011;57064;52.046;4.800;2022-08-01T13:38:19;7.72;;;1.35;;
69789;SDS011;57064;52.046;4.800;2022-08-01T13:41:06;7.88;;;1.70;;
69789;SDS011;57064;52.046;4.800;2022-08-01T13:43:33;5.80;;;1.73;;
69789;SDS011;57064;52.046;4.800;2022-08-01T13:46:00;6.32;;;1.58;;
69789;SDS011;57064;52.046;4.800;2022-08-01T13:48:29;5.85;;;1.73;;
69789;SDS011;57064;52.046;4.800;2022-08-01T13:50:56;6.13;;;1.55;;
69789;SDS011;57064;52.046;4.800;2022-08-01T13:53:22;7.03;;;1.70;;
69789;SDS011;57064;52.046;4.800;2022-08-01T13:55:48;4.95;;;1.40;;
69789;SDS011;57064;52.046;4.800;2022-08-01T13:58:14;6.63;;;1.58;;
69789;SDS011;57064;52.046;4.800;2022-08-01T14:00:41;6.75;;;1.88;;
69789;SDS011;57064;52.046;4.800;2022-08-01T14:03:07;6.63;;;2.33;;
69789;SDS011;57064;52.046;4.800;2022-08-01T14:05:34;8.48;;;1.80;;
69789;SDS011;57064;52.046;4.800;2022-08-01T14:08:01;7.50;;;1.75;;
69789;SDS011;57064;52.046;4.800;2022-08-01T14:10:27;7.60;;;1.77;;
69789;SDS011;57064;52.046;4.800;2022-08-01T14:12:54;7.53;;;1.75;;
69789;SDS011;57064;52.046;4.800;2022-08-01T14:15:22;4.05;;;1.67;;
69789;SDS011;57064;52.046;4.800;2022-08-01T14:17:49;6.97;;;1.60;;
69789;SDS011;57064;52.046;4.800;2022-08-01T14:20:15;4.20;;;1.40;;
69789;SDS011;57064;52.046;4.800;2022-08-01T14:22:44;5.43;;;1.50;;
69789;SDS011;57064;52.046;4.800;2022-08-01T14:25:12;3.45;;;1.55;;
69789;SDS011;57064;52.046;4.800;2022-08-01T14:27:38;4.13;;;1.55;;
69789;SDS011;57064;52.046;4.800;2022-08-01T14:30:06;6.95;;;1.80;;
69789;SDS011;57064;52.046;4.800;2022-08-01T14:32:33;5.38;;;1.85;;
69789;SDS011;57064;52.046;4.800;2022-08-01T14:35:03;8.63;;;2.20;;
69789;SDS011;57064;52.046;4.800;2022-08-01T14:37:31;7.78;;;1.77;;
69789;SDS011;57064;52.046;4.800;2022-08-01T14:39:57;4.85;;;1.58;;
69789;SDS011;57064;52.046;4.800;2022-08-01T14:42:25;8.48;;;1.67;;
69789;SDS011;57064;52.046;4.800;2022-08-01T14:44:51;6.68;;;1.67;;
69789;SDS011;57064;52.046;4.800;2022-08-01T14:47:17;6.70;;;1.90;;
69789;SDS011;57064;52.046;4.800;2022-08-01T14:49:43;5.15;;;1.65;;
69789;SDS011;57064;52.046;4.800;2022-08-01T14:52:09;4.35;;;1.80;;
69789;SDS011;57064;52.046;4.800;2022-08-01T14:54:35;3.33;;;1.20;;
69789;SDS011;57064;52.046;4.800;2022-08-01T14:57:01;5.10;;;1.58;;
69789;SDS011;57064;52.046;4.800;2022-08-01T14:59:28;4.75;;;1.55;;
69789;SDS011;57064;52.046;4.800;2022-08-01T15:01:54;5.00;;;1.67;;
69789;SDS011;57064;52.046;4.800;2022-08-01T15:04:20;4.05;;;1.63;;
69789;SDS011;57064;52.046;4.800;2022-08-01T15:06:46;5.78;;;1.70;;
69789;SDS011;57064;52.046;4.800;2022-08-01T15:09:12;5.15;;;2.17;;
69789;SDS011;57064;52.046;4.800;2022-08-01T15:11:38;4.32;;;1.73;;
69789;SDS011;57064;52.046;4.800;2022-08-01T15:14:04;6.38;;;1.77;;
69789;SDS011;57064;52.046;4.800;2022-08-01T15:16:49;5.43;;;1.92;;
69789;SDS011;57064;52.046;4.800;2022-08-01T15:19:15;6.38;;;1.70;;
69789;SDS011;57064;52.046;4.800;2022-08-01T15:21:41;4.28;;;1.50;;
69789;SDS011;57064;52.046;4.800;2022-08-01T15:24:07;5.13;;;1.48;;
69789;SDS011;57064;52.046;4.800;2022-08-01T15:26:34;6.93;;;1.60;;
69789;SDS011;57064;52.046;4.800;2022-08-01T15:29:00;6.90;;;1.65;;
69789;SDS011;57064;52.046;4.800;2022-08-01T15:31:26;5.22;;;1.48;;
69789;SDS011;57064;52.046;4.800;2022-08-01T15:33:52;4.82;;;1.52;;
69789;SDS011;57064;52.046;4.800;2022-08-01T15:36:19;3.85;;;1.40;;
69789;SDS011;57064;52.046;4.800;2022-08-01T15:38:45;4.43;;;1.30;;